createdAt,value
2019-04-27T00:02:26.637Z,100057.42
2019-04-27T00:05:03.711Z,100056.95
2019-04-27T00:07:56.271Z,100050.50
2019-04-27T00:10:46.860Z,100047.48
2019-04-27T00:13:17.234Z,100043.64
2019-04-27T00:15:56.233Z,100043.25
2019-04-27T00:18:49.501Z,100042.84
2019-04-27T00:21:29.307Z,100049.33
2019-04-27T00:23:59.602Z,100046.31
2019-04-27T00:26:30.522Z,100040.67
2019-04-27T00:29:01.132Z,100035.06
2019-04-27T00:31:33.665Z,100024.23
2019-04-27T00:34:04.423Z,100027.66
2019-04-27T00:37:03.597Z,100032.79
2019-04-27T00:39:48.371Z,100028.91
2019-04-27T00:42:18.805Z,100020.72
2019-04-27T00:44:49.124Z,100023.34
2019-04-27T00:47:19.636Z,100030.75
2019-04-27T00:49:49.908Z,100026.41
2019-04-27T00:52:20.243Z,100031.16
2019-04-27T00:54:50.779Z,100028.62
2019-04-27T00:57:53.620Z,100022.56
2019-04-27T01:00:47.604Z,100014.75
2019-04-27T01:03:29.630Z,100019.14
2019-04-27T01:06:00.212Z,100023.91
2019-04-27T01:08:30.683Z,100027.81
2019-04-27T01:11:02.889Z,100025.62
2019-04-27T01:13:34.995Z,100024.42
2019-04-27T01:16:05.556Z,100022.30
2019-04-27T01:18:35.726Z,100020.18
2019-04-27T01:21:06.431Z,100015.94
2019-04-27T01:23:38.533Z,100021.17
2019-04-27T01:26:44.994Z,100014.31
2019-04-27T01:29:19.223Z,100013.90
2019-04-27T01:31:50.072Z,100011.39
2019-04-27T01:34:21.995Z,100013.53
2019-04-27T01:37:44.316Z,100020.06
2019-04-27T01:40:15.346Z,100018.31
2019-04-27T01:42:45.659Z,100014.48
2019-04-27T01:45:16.334Z,100014.88
2019-04-27T01:47:49.283Z,100008.05
2019-04-27T01:50:20.127Z,100014.98
2019-04-27T01:52:50.406Z,100014.15
2019-04-27T01:55:21.279Z,100013.30
2019-04-27T01:57:51.681Z,100007.29
2019-04-27T02:01:00.189Z,100015.94
2019-04-27T02:03:54.941Z,100005.12
2019-04-27T02:06:26.883Z,100006.03
2019-04-27T02:08:57.234Z,99998.35
2019-04-27T02:11:28.738Z,100001.83
2019-04-27T02:13:59.736Z,100001.02
2019-04-27T02:16:31.146Z,99998.91
2019-04-27T02:19:01.509Z,99992.48
2019-04-27T02:21:32.227Z,99991.66
2019-04-27T02:24:02.546Z,99994.73
2019-04-27T02:26:32.912Z,99988.33
2019-04-27T02:29:40.919Z,99996.06
2019-04-27T02:32:29.220Z,99991.81
2019-04-27T02:35:02.439Z,99989.69
2019-04-27T02:37:32.829Z,99991.09
2019-04-27T02:40:03.099Z,99976.48
2019-04-27T02:42:42.451Z,99981.69
2019-04-27T02:45:14.320Z,99974.91
2019-04-27T02:47:49.041Z,99977.13
2019-04-27T02:50:23.878Z,99971.53
2019-04-27T02:52:59.897Z,99973.30
2019-04-27T02:55:29.620Z,99970.72
2019-04-27T02:58:00.032Z,99973.35
2019-04-27T03:00:31.921Z,99978.56
2019-04-27T03:03:09.981Z,99977.25
2019-04-27T03:05:40.115Z,99982.84
2019-04-27T03:08:10.986Z,99978.56
2019-04-27T03:10:42.243Z,99980.70
2019-04-27T03:13:24.573Z,99979.00
2019-04-27T03:16:13.404Z,99985.05
2019-04-27T03:18:50.751Z,99974.69
2019-04-27T03:21:24.576Z,99980.32
2019-04-27T03:23:54.973Z,99978.20
2019-04-27T03:26:33.310Z,99981.65
2019-04-27T03:29:03.602Z,99980.80
2019-04-27T03:31:33.906Z,99978.20
2019-04-27T03:34:05.788Z,99973.45
2019-04-27T03:36:36.437Z,99975.59
2019-04-27T03:39:10.151Z,99973.40
2019-04-27T03:41:41.101Z,99984.19
2019-04-27T03:44:12.168Z,99987.17
2019-04-27T03:46:42.504Z,99989.30
2019-04-27T03:49:27.953Z,99981.91
2019-04-27T03:51:55.270Z,99982.37
2019-04-27T03:54:32.352Z,99984.95
2019-04-27T03:57:16.183Z,99981.06
2019-04-27T04:00:00.165Z,99980.72
2019-04-27T04:02:31.092Z,99981.59
2019-04-27T04:05:01.435Z,99976.44
2019-04-27T04:07:31.851Z,99970.52
2019-04-27T04:10:02.595Z,99974.44
2019-04-27T04:12:40.868Z,99971.92
2019-04-27T04:15:19.961Z,99971.53
2019-04-27T04:17:49.737Z,99970.72
2019-04-27T04:20:20.318Z,99976.30
2019-04-27T04:22:51.565Z,99976.73
2019-04-27T04:25:22.038Z,99969.41
2019-04-27T04:27:55.221Z,99984.47
2019-04-27T04:30:26.945Z,99969.31
2019-04-27T04:32:59.683Z,99966.29
2019-04-27T04:35:32.532Z,99964.13
2019-04-27T04:38:02.272Z,99966.62
2019-04-27T04:40:47.563Z,99956.67
2019-04-27T04:43:41.735Z,99952.38
2019-04-27T04:46:36.904Z,99955.45
2019-04-27T04:49:09.408Z,99954.14
2019-04-27T04:51:40.286Z,99955.80
2019-04-27T04:54:11.867Z,99954.48
2019-04-27T04:56:42.811Z,99950.55
2019-04-27T04:59:13.157Z,99946.18
2019-04-27T05:01:43.498Z,99950.77
2019-04-27T05:04:13.841Z,99951.98
2019-04-27T05:06:44.494Z,99950.42
2019-04-27T05:09:15.278Z,99953.50
2019-04-27T05:11:45.691Z,99956.04
2019-04-27T05:14:15.958Z,99951.41
2019-04-27T05:16:46.209Z,99959.81
2019-04-27T05:19:18.749Z,99953.08
2019-04-27T05:21:49.286Z,99955.79
2019-04-27T05:24:19.605Z,99946.38
2019-04-27T05:26:50.289Z,99949.30
2019-04-27T05:29:20.712Z,99947.23
2019-04-27T05:31:51.031Z,99966.08
2019-04-27T05:34:21.433Z,99967.62
2019-04-27T05:36:52.616Z,99963.89
2019-04-27T05:39:24.911Z,99964.18
2019-04-27T05:41:55.837Z,99970.15
2019-04-27T05:44:45.663Z,99973.09
2019-04-27T05:47:34.575Z,99966.95
2019-04-27T05:50:13.480Z,99961.55
2019-04-27T05:52:43.197Z,99953.00
2019-04-27T05:55:13.584Z,99955.28
2019-04-27T05:57:43.930Z,99951.38
2019-04-27T06:00:19.149Z,99955.95
2019-04-27T06:02:49.778Z,99954.27
2019-04-27T06:05:22.720Z,99960.88
2019-04-27T06:07:52.840Z,99953.92
2019-04-27T06:10:23.496Z,99918.89
2019-04-27T06:12:54.978Z,99957.52
2019-04-27T06:15:25.283Z,99943.75
2019-04-27T06:17:55.588Z,99946.43
2019-04-27T06:20:26.590Z,99942.95
2019-04-27T06:22:58.728Z,99934.05
2019-04-27T06:25:30.656Z,99933.44
2019-04-27T06:28:01.554Z,99935.00
2019-04-27T06:30:32.141Z,99929.34
2019-04-27T06:33:02.486Z,99934.30
2019-04-27T06:35:32.838Z,99926.34
2019-04-27T06:38:05.067Z,99925.52
2019-04-27T06:40:35.611Z,99921.62
2019-04-27T06:43:06.163Z,99925.59
2019-04-27T06:45:36.582Z,99925.34
2019-04-27T06:48:06.830Z,99926.12
2019-04-27T06:50:38.971Z,99931.34
2019-04-27T06:53:09.723Z,99924.08
2019-04-27T06:55:40.109Z,99921.76
2019-04-27T06:58:10.454Z,99924.92
2019-04-27T07:00:40.845Z,99926.08
2019-04-27T07:03:11.399Z,99923.75
2019-04-27T07:05:41.722Z,99914.48
2019-04-27T07:08:12.052Z,99916.41
2019-04-27T07:10:42.413Z,99915.20
2019-04-27T07:13:12.708Z,99914.64
2019-04-27T07:15:44.565Z,99915.30
2019-04-27T07:18:15.289Z,99903.31
2019-04-27T07:20:45.487Z,99907.23
2019-04-27T07:23:15.997Z,99909.37
2019-04-27T07:25:46.237Z,99898.69
2019-04-27T07:28:16.625Z,99894.85
2019-04-27T07:30:48.760Z,99896.06
2019-04-27T07:33:19.197Z,99901.25
2019-04-27T07:35:49.612Z,99892.95
2019-04-27T07:38:20.110Z,99893.09
2019-04-27T07:40:50.682Z,99888.92
2019-04-27T07:43:32.780Z,99880.14
2019-04-27T07:46:03.272Z,99883.06
2019-04-27T07:48:33.768Z,99880.02
2019-04-27T07:51:06.141Z,99866.56
2019-04-27T07:53:36.788Z,99873.59
2019-04-27T07:56:07.094Z,99873.09
2019-04-27T07:58:39.588Z,99867.15
2019-04-27T08:01:12.017Z,99874.06
2019-04-27T08:03:42.474Z,99873.75
2019-04-27T08:06:13.473Z,99877.44
2019-04-27T08:08:44.537Z,99879.52
2019-04-27T08:11:14.976Z,99878.00
2019-04-27T08:13:45.522Z,99869.72
2019-04-27T08:16:16.065Z,99886.11
2019-04-27T08:18:46.351Z,99881.61
2019-04-27T08:21:16.769Z,99878.16
2019-04-27T08:23:48.895Z,99874.43
2019-04-27T08:26:26.346Z,99873.63
2019-04-27T08:29:14.208Z,99866.47
2019-04-27T08:31:49.751Z,99863.30
2019-04-27T08:34:32.781Z,99863.27
2019-04-27T08:37:04.452Z,99869.95
2019-04-27T08:39:35.468Z,99869.89
2019-04-27T08:42:09.392Z,99873.45
2019-04-27T08:44:39.703Z,99872.37
2019-04-27T08:47:10.130Z,99872.28
2019-04-27T08:49:59.636Z,99875.87
2019-04-27T08:52:30.124Z,99873.09
2019-04-27T08:55:00.648Z,99870.47
2019-04-27T08:57:30.845Z,99872.45
2019-04-27T09:00:01.125Z,99871.24
2019-04-27T09:02:41.533Z,99813.50
2019-04-27T09:05:04.450Z,99874.20
2019-04-27T09:07:59.792Z,99865.22
2019-04-27T09:10:40.825Z,99860.67
2019-04-27T09:13:20.455Z,99856.23
2019-04-27T09:15:55.540Z,99865.52
2019-04-27T09:18:32.333Z,99866.22
2019-04-27T09:21:02.475Z,99865.28
2019-04-27T09:23:32.870Z,99862.32
2019-04-27T09:26:03.241Z,99863.01
2019-04-27T09:28:33.784Z,99863.01
2019-04-27T09:31:04.243Z,99858.05
2019-04-27T09:33:34.589Z,99851.46
2019-04-27T09:36:06.135Z,99852.34
2019-04-27T09:38:36.465Z,99846.35
2019-04-27T09:41:07.307Z,99849.89
2019-04-27T09:43:38.698Z,99839.06
2019-04-27T09:46:08.968Z,99838.51
2019-04-27T09:48:39.308Z,99837.05
2019-04-27T09:51:09.930Z,99833.02
2019-04-27T09:53:40.287Z,99832.25
2019-04-27T09:56:11.002Z,99832.28
2019-04-27T09:58:41.366Z,99834.33
2019-04-27T10:01:11.809Z,99832.27
2019-04-27T10:03:42.424Z,99825.47
2019-04-27T10:06:13.020Z,99819.91
2019-04-27T10:08:43.134Z,99825.08
2019-04-27T10:11:13.463Z,99815.72
2019-04-27T10:13:43.692Z,99812.05
2019-04-27T10:16:13.939Z,99815.72
2019-04-27T10:18:45.853Z,99810.09
2019-04-27T10:21:16.363Z,99810.90
2019-04-27T10:23:47.090Z,99798.19
2019-04-27T10:26:17.501Z,99801.98
2019-04-27T10:28:47.712Z,99796.13
2019-04-27T10:31:18.134Z,99798.44
2019-04-27T10:33:48.479Z,99789.83
2019-04-27T10:36:37.713Z,99780.50
2019-04-27T10:39:13.482Z,99786.68
2019-04-27T10:41:46.310Z,99786.46
2019-04-27T10:44:17.145Z,99785.04
2019-04-27T10:46:47.472Z,99786.66
2019-04-27T10:49:17.819Z,99779.73
2019-04-27T10:51:48.039Z,99787.25
2019-04-27T10:54:18.446Z,99788.89
2019-04-27T10:56:48.772Z,99789.31
2019-04-27T10:59:19.029Z,99787.31
2019-04-27T11:01:49.391Z,99783.09
2019-04-27T11:04:56.704Z,99789.11
2019-04-27T11:07:31.740Z,99778.09
2019-04-27T11:10:01.904Z,99782.53
2019-04-27T11:12:32.163Z,99787.13
2019-04-27T11:15:02.648Z,99780.56
2019-04-27T11:17:33.288Z,99779.92
2019-04-27T11:20:03.858Z,99775.23
2019-04-27T11:22:34.137Z,99782.60
2019-04-27T11:25:06.189Z,99783.56
2019-04-27T11:27:36.579Z,99786.92
2019-04-27T11:30:08.547Z,99786.51
2019-04-27T11:32:38.820Z,99779.69
2019-04-27T11:35:37.112Z,99789.48
2019-04-27T11:38:07.609Z,99794.52
2019-04-27T11:40:38.399Z,99784.09
2019-04-27T11:43:08.857Z,99781.43
2019-04-27T11:45:39.086Z,99779.92
2019-04-27T11:48:09.455Z,99779.61
2019-04-27T11:50:39.710Z,99770.72
2019-04-27T11:53:19.905Z,99767.84
2019-04-27T11:55:42.174Z,99758.38
2019-04-27T11:58:12.495Z,99756.96
2019-04-27T12:00:43.128Z,99756.49
2019-04-27T12:03:13.421Z,99748.70
2019-04-27T12:05:43.747Z,99745.81
2019-04-27T12:08:13.976Z,99744.52
2019-04-27T12:10:46.431Z,99740.31
2019-04-27T12:13:17.005Z,99734.92
2019-04-27T12:15:47.267Z,99680.70
2019-04-27T12:18:17.853Z,99722.81
2019-04-27T12:20:48.210Z,99721.77
2019-04-27T12:23:18.451Z,99713.72
2019-04-27T12:25:48.696Z,99709.77
2019-04-27T12:28:27.678Z,99718.05
2019-04-27T12:31:23.300Z,99711.81
2019-04-27T12:33:53.720Z,99721.55
2019-04-27T12:36:25.696Z,99718.14
2019-04-27T12:38:56.701Z,99710.67
2019-04-27T12:41:26.925Z,99712.78
2019-04-27T12:43:57.360Z,99710.06
2019-04-27T12:46:27.761Z,99703.02
2019-04-27T12:48:58.424Z,99703.30
2019-04-27T12:51:28.787Z,99700.24
2019-04-27T12:54:05.960Z,99699.13
2019-04-27T12:56:58.374Z,99688.29
2019-04-27T12:59:46.705Z,99683.89
2019-04-27T13:02:18.286Z,99688.59
2019-04-27T13:04:48.747Z,99673.66
2019-04-27T13:07:19.059Z,99671.64
2019-04-27T13:09:49.404Z,99667.59
2019-04-27T13:12:19.790Z,99665.13
2019-04-27T13:14:52.241Z,99661.38
2019-04-27T13:17:22.660Z,99660.73
2019-04-27T13:19:53.089Z,99665.44
2019-04-27T13:22:23.441Z,99658.36
2019-04-27T13:24:53.765Z,99665.04
2019-04-27T13:27:24.221Z,99654.52
2019-04-27T13:29:55.666Z,99660.14
2019-04-27T13:32:26.665Z,99683.10
2019-04-27T13:34:56.877Z,99762.13
2019-04-27T13:37:39.115Z,99772.37
2019-04-27T13:40:10.904Z,99753.52
2019-04-27T13:42:46.860Z,99739.88
2019-04-27T13:45:26.645Z,99729.93
2019-04-27T13:48:16.237Z,99733.08
2019-04-27T13:50:50.018Z,99731.25
2019-04-27T13:53:19.272Z,99732.48
2019-04-27T13:55:49.880Z,99735.55
2019-04-27T13:58:20.402Z,99731.45
2019-04-27T14:00:50.946Z,99732.17
2019-04-27T14:03:21.384Z,99724.87
2019-04-27T14:05:54.526Z,99736.00
2019-04-27T14:08:24.976Z,99737.64
2019-04-27T14:10:55.255Z,99732.27
2019-04-27T14:13:25.832Z,99743.14
2019-04-27T14:15:56.194Z,99750.14
2019-04-27T14:18:26.516Z,99753.20
2019-04-27T14:20:56.776Z,99714.27
2019-04-27T14:23:28.746Z,99771.00
2019-04-27T14:26:00.394Z,99784.88
2019-04-27T14:28:30.848Z,99800.06
2019-04-27T14:31:01.147Z,99795.25
2019-04-27T14:33:31.434Z,99792.76
2019-04-27T14:36:01.683Z,99790.63
2019-04-27T14:38:31.976Z,99782.77
2019-04-27T14:41:02.519Z,99766.79
2019-04-27T14:43:32.752Z,99754.65
2019-04-27T14:46:03.074Z,99727.00
2019-04-27T14:48:33.255Z,99753.66
2019-04-27T14:51:09.673Z,99791.44
2019-04-27T14:53:39.941Z,99798.98
2019-04-27T14:56:10.124Z,99801.88
2019-04-27T14:58:40.444Z,99815.80
2019-04-27T15:01:11.232Z,99819.80
2019-04-27T15:03:43.698Z,99804.50
2019-04-27T15:06:17.497Z,99785.77
2019-04-27T15:08:55.656Z,99775.80
2019-04-27T15:11:42.742Z,99770.55
2019-04-27T15:14:20.766Z,99781.57
2019-04-27T15:17:01.574Z,99781.86
2019-04-27T15:19:43.010Z,99783.85
2019-04-27T15:22:23.375Z,99794.42
2019-04-27T15:25:09.088Z,99805.94
2019-04-27T15:27:37.715Z,99795.39
2019-04-27T15:30:29.779Z,99793.42
2019-04-27T15:33:25.139Z,99786.02
2019-04-27T15:36:03.014Z,99784.26
2019-04-27T15:38:35.444Z,99785.61
2019-04-27T15:41:15.432Z,99793.44
2019-04-27T15:43:48.537Z,99796.75
2019-04-27T15:46:18.659Z,99798.92
2019-04-27T15:48:48.919Z,99801.86
2019-04-27T15:51:21.193Z,99795.20
2019-04-27T15:53:53.925Z,99796.02
2019-04-27T15:56:24.406Z,99814.52
2019-04-27T15:58:55.835Z,99812.94
2019-04-27T16:01:35.637Z,99818.92
2019-04-27T16:04:02.433Z,99814.85
2019-04-27T16:06:54.296Z,99815.83
2019-04-27T16:09:48.773Z,99812.53
2019-04-27T16:12:19.195Z,99817.53
2019-04-27T16:14:49.737Z,99811.59
2019-04-27T16:17:20.058Z,99809.39
2019-04-27T16:19:50.608Z,99804.73
2019-04-27T16:22:22.643Z,99801.65
2019-04-27T16:24:54.724Z,99797.41
2019-04-27T16:27:25.894Z,99803.43
2019-04-27T16:30:00.365Z,99804.85
2019-04-27T16:32:30.118Z,99794.96
2019-04-27T16:35:00.496Z,99788.02
2019-04-27T16:37:56.376Z,99789.25
2019-04-27T16:40:27.121Z,99787.55
2019-04-27T16:42:58.473Z,99788.04
2019-04-27T16:45:28.815Z,99793.03
2019-04-27T16:48:02.097Z,99788.41
2019-04-27T16:50:32.500Z,99798.14
2019-04-27T16:53:03.051Z,99802.36
2019-04-27T16:55:38.992Z,99806.79
2019-04-27T16:58:15.821Z,99804.36
2019-04-27T17:00:41.442Z,99800.00
2019-04-27T17:03:12.240Z,99801.30
2019-04-27T17:05:43.012Z,99805.48
2019-04-27T17:08:21.605Z,99797.34
2019-04-27T17:10:45.654Z,99794.09
2019-04-27T17:13:16.251Z,99788.89
2019-04-27T17:16:11.374Z,99791.03
2019-04-27T17:19:04.819Z,99802.91
2019-04-27T17:21:33.403Z,99807.34
2019-04-27T17:24:04.010Z,99811.21
2019-04-27T17:26:35.515Z,99814.63
2019-04-27T17:29:16.275Z,99818.61
2019-04-27T17:31:50.529Z,99831.97
2019-04-27T17:34:25.159Z,99840.67
2019-04-27T17:36:59.035Z,99843.77
2019-04-27T17:39:38.883Z,99855.98
2019-04-27T17:42:09.284Z,99855.64
2019-04-27T17:44:39.679Z,99866.65
2019-04-27T17:47:10.662Z,99873.70
2019-04-27T17:49:41.439Z,99872.98
2019-04-27T17:52:13.117Z,99877.06
2019-04-27T17:54:47.540Z,99880.33
2019-04-27T17:57:17.896Z,99890.41
2019-04-27T17:59:51.258Z,99892.57
2019-04-27T18:02:20.963Z,99895.31
2019-04-27T18:04:53.143Z,99904.07
2019-04-27T18:07:23.561Z,99904.55
2019-04-27T18:09:53.916Z,99906.72
2019-04-27T18:12:24.268Z,99910.78
2019-04-27T18:14:54.599Z,99916.33
2019-04-27T18:17:28.756Z,99924.20
2019-04-27T18:20:02.789Z,99928.55
2019-04-27T18:22:39.673Z,99927.22
2019-04-27T18:25:11.151Z,99932.01
2019-04-27T18:27:53.236Z,99939.39
2019-04-27T18:30:42.613Z,99942.89
2019-04-27T18:33:12.878Z,99945.53
2019-04-27T18:35:43.231Z,99955.47
2019-04-27T18:38:15.536Z,99951.20
2019-04-27T18:40:45.983Z,99961.09
2019-04-27T18:43:16.193Z,99964.52
2019-04-27T18:45:48.486Z,99970.17
2019-04-27T18:48:25.561Z,99970.17
2019-04-27T18:51:06.070Z,99970.57
2019-04-27T18:53:36.615Z,99981.04
2019-04-27T18:56:10.098Z,99979.72
2019-04-27T18:58:39.125Z,99987.98
2019-04-27T19:01:10.243Z,99989.75
2019-04-27T19:03:41.035Z,99997.53
2019-04-27T19:06:11.274Z,99996.19
2019-04-27T19:08:41.692Z,100004.79
2019-04-27T19:11:12.016Z,100009.16
2019-04-27T19:13:42.205Z,100006.16
2019-04-27T19:16:14.829Z,100011.36
2019-04-27T19:18:47.716Z,100015.68
2019-04-27T19:21:20.015Z,100023.48
2019-04-27T19:23:50.419Z,100034.70
2019-04-27T19:26:39.418Z,100041.98
2019-04-27T19:29:15.990Z,100048.93
2019-04-27T19:31:50.117Z,100050.16
2019-04-27T19:34:20.817Z,100054.95
2019-04-27T19:36:51.571Z,100057.64
2019-04-27T19:39:21.852Z,100055.53
2019-04-27T19:42:00.458Z,100058.61
2019-04-27T19:44:24.414Z,100066.86
2019-04-27T19:46:55.172Z,100050.94
2019-04-27T19:49:31.258Z,100041.02
2019-04-27T19:51:59.952Z,100045.35
2019-04-27T19:54:30.430Z,99990.85
2019-04-27T19:57:06.254Z,100053.59
2019-04-27T19:59:58.843Z,100057.06
2019-04-27T20:02:29.224Z,100056.22
2019-04-27T20:05:06.116Z,100058.83
2019-04-27T20:07:38.036Z,100059.33
2019-04-27T20:10:11.002Z,100065.81
2019-04-27T20:12:50.939Z,100056.73
2019-04-27T20:15:21.983Z,100073.97
2019-04-27T20:17:53.368Z,100077.02
2019-04-27T20:20:25.353Z,100083.88
2019-04-27T20:22:57.985Z,100079.61
2019-04-27T20:25:28.537Z,100085.27
2019-04-27T20:28:00.894Z,100086.16
2019-04-27T20:30:34.158Z,100090.89
2019-04-27T20:33:05.210Z,100086.58
2019-04-27T20:35:36.043Z,100087.45
2019-04-27T20:38:07.016Z,100088.34
2019-04-27T20:40:37.707Z,100094.41
2019-04-27T20:43:09.026Z,100102.63
2019-04-27T20:45:41.311Z,100104.33
2019-04-27T20:48:12.135Z,100106.09
2019-04-27T20:50:44.270Z,100109.13
2019-04-27T20:53:18.045Z,100109.59
2019-04-27T20:55:49.656Z,100113.91
2019-04-27T20:58:21.686Z,100110.48
2019-04-27T21:00:52.203Z,100112.63
2019-04-27T21:03:36.291Z,100115.23
2019-04-27T21:06:23.242Z,100113.98
2019-04-27T21:08:53.648Z,100113.09
2019-04-27T21:11:26.446Z,100120.91
2019-04-27T21:13:57.127Z,100108.36
2019-04-27T21:16:28.674Z,100114.43
2019-04-27T21:19:02.009Z,100077.92
2019-04-27T21:21:35.300Z,100119.17
2019-04-27T21:24:07.749Z,100125.66
2019-04-27T21:26:39.298Z,100129.58
2019-04-27T21:29:11.570Z,100131.34
2019-04-27T21:31:42.523Z,100131.33
2019-04-27T21:34:20.031Z,100133.53
2019-04-27T21:36:51.125Z,100136.11
2019-04-27T21:39:21.811Z,100136.11
2019-04-27T21:41:53.629Z,100131.73
2019-04-27T21:44:24.008Z,100130.04
2019-04-27T21:46:54.342Z,100134.78
2019-04-27T21:49:24.684Z,100139.95
2019-04-27T21:52:08.812Z,100136.53
2019-04-27T21:54:38.654Z,100132.69
2019-04-27T21:57:15.857Z,100132.68
2019-04-27T22:00:13.570Z,100134.39
2019-04-27T22:02:44.225Z,100138.31
2019-04-27T22:05:14.934Z,100144.38
2019-04-27T22:07:46.146Z,100143.55
2019-04-27T22:10:16.871Z,100142.25
2019-04-27T22:12:47.981Z,100143.55
2019-04-27T22:15:18.619Z,100148.73
2019-04-27T22:17:55.167Z,100151.76
2019-04-27T22:20:29.108Z,100145.70
2019-04-27T22:23:01.749Z,100152.61
2019-04-27T22:25:35.648Z,100148.73
2019-04-27T22:28:07.651Z,100159.08
2019-04-27T22:30:38.953Z,100158.63
2019-04-27T22:33:11.190Z,100158.64
2019-04-27T22:35:43.284Z,100155.59
2019-04-27T22:38:14.072Z,100159.08
2019-04-27T22:41:02.772Z,100161.67
2019-04-27T22:43:55.657Z,100165.55
2019-04-27T22:46:27.515Z,100167.29
2019-04-27T22:48:58.234Z,100166.45
2019-04-27T22:51:28.452Z,100170.80
2019-04-27T22:53:58.859Z,100166.48
2019-04-27T22:56:32.116Z,100168.66
2019-04-27T22:59:08.544Z,100176.42
2019-04-27T23:02:11.442Z,100170.80
2019-04-27T23:04:47.640Z,100172.55
2019-04-27T23:07:21.313Z,100173.84
2019-04-27T23:09:52.288Z,100173.42
2019-04-27T23:12:28.899Z,100173.42
2019-04-27T23:14:59.304Z,100176.42
2019-04-27T23:17:48.528Z,100176.42
2019-04-27T23:20:22.646Z,100172.13
2019-04-27T23:22:53.452Z,100175.13
2019-04-27T23:25:24.279Z,100174.28
2019-04-27T23:27:55.684Z,100174.72
2019-04-27T23:30:36.610Z,100172.98
2019-04-27T23:33:12.983Z,100173.42
2019-04-27T23:35:43.974Z,100174.28
2019-04-27T23:38:17.282Z,100175.16
2019-04-27T23:40:53.155Z,100182.05
2019-04-27T23:43:23.755Z,100174.72
2019-04-27T23:45:55.389Z,100179.45
2019-04-27T23:48:26.256Z,100188.09
2019-04-27T23:51:02.222Z,100182.92
2019-04-27T23:53:34.356Z,100179.05
2019-04-27T23:56:05.795Z,100181.62
2019-04-27T23:58:36.359Z,100180.78
